Time;durP1;ratioP1;P1;durP2;ratioP2;P2;SDS_P1;SDS_P2;PMS_P1;PMS_P2;Temp;Humidity;BMP_temperature;BMP_pressure;BME280_temperature;BME280_humidity;BME280_pressure;Samples;Min_cycle;Max_cycle;Signal;HPM_P1;HPM_P2
2023/01/23 00:00:14;;;;;;;21.10;14.37;;;;;;;-0.45;100.00;151255.50;4992763;28;20951;-77
2023/01/23 00:02:41;;;;;;;20.57;12.80;;;;;;;-0.46;100.00;151252.94;4987833;28;20488;-76
2023/01/23 00:05:08;;;;;;;21.70;14.40;;;;;;;-0.52;100.00;151238.81;4970910;28;20492;-76
2023/01/23 00:07:35;;;;;;;17.60;12.73;;;;;;;-0.53;100.00;151236.22;4994430;28;20468;-77
2023/01/23 00:10:01;;;;;;;14.90;11.80;;;;;;;-0.48;100.00;151249.09;4992790;28;20511;-76
2023/01/23 00:12:28;;;;;;;17.60;12.40;;;;;;;-0.52;100.00;151238.81;4982412;28;20452;-76
2023/01/23 00:14:55;;;;;;;20.70;12.00;;;;;;;-0.50;100.00;151243.94;4985914;28;20485;-76
2023/01/23 00:17:25;;;;;;;16.33;11.97;;;;;;;-0.54;100.00;151233.69;4989571;28;20977;-77
2023/01/23 00:19:53;;;;;;;16.13;11.40;;;;;;;-0.44;100.00;151259.34;4987032;28;20856;-76
2023/01/23 00:22:19;;;;;;;15.60;10.80;;;;;;;-0.50;100.00;151243.94;4990679;28;20568;-76
2023/01/23 00:24:46;;;;;;;17.53;12.00;;;;;;;-0.47;100.00;151250.34;4989389;28;20461;-76
2023/01/23 00:27:13;;;;;;;16.27;12.03;;;;;;;-0.40;100.00;151268.34;4980984;28;20526;-76
2023/01/23 00:29:39;;;;;;;15.80;11.20;;;;;;;-0.47;100.00;151250.34;4968542;28;20568;-77
2023/01/23 00:32:07;;;;;;;19.27;11.47;;;;;;;-0.50;100.00;151243.94;4989227;28;20452;-77
2023/01/23 00:34:35;;;;;;;17.07;12.50;;;;;;;-0.48;100.00;151247.81;4979781;28;20575;-76
2023/01/23 00:37:02;;;;;;;18.57;12.93;;;;;;;-0.52;100.00;151238.81;4992069;28;20452;-76
2023/01/23 00:39:28;;;;;;;14.87;11.17;;;;;;;-0.52;100.00;151238.81;4990364;28;20463;-76
2023/01/23 00:41:55;;;;;;;17.40;12.10;;;;;;;-0.50;100.00;151242.69;4975442;28;20470;-76
2023/01/23 00:44:23;;;;;;;17.23;12.27;;;;;;;-0.49;100.00;151246.53;4989747;28;20489;-76
2023/01/23 00:46:50;;;;;;;21.03;12.97;;;;;;;-0.53;100.00;151236.22;4987711;28;20465;-76
2023/01/23 00:49:18;;;;;;;19.30;13.47;;;;;;;-0.46;100.00;151254.22;5000425;28;20461;-76
2023/01/23 00:51:46;;;;;;;17.93;12.97;;;;;;;-0.51;100.00;151241.41;4968352;28;20461;-76
2023/01/23 00:54:13;;;;;;;16.70;12.17;;;;;;;-0.46;100.00;151254.22;4994783;28;20437;-76
2023/01/23 00:56:40;;;;;;;16.57;12.20;;;;;;;-0.48;100.00;151249.09;4979659;28;20527;-76
2023/01/23 00:59:07;;;;;;;19.33;13.17;;;;;;;-0.55;100.00;151231.13;4975227;28;20450;-76
2023/01/23 01:01:34;;;;;;;17.30;13.67;;;;;;;-0.57;100.00;151226.00;4988076;28;20982;-76
2023/01/23 01:04:01;;;;;;;16.53;12.20;;;;;;;-0.55;100.00;151231.13;5000925;28;20880;-76
2023/01/23 01:06:29;;;;;;;18.47;12.50;;;;;;;-0.57;100.00;151226.00;4976758;28;20461;-76
2023/01/23 01:08:58;;;;;;;17.87;12.40;;;;;;;-0.57;100.00;151226.00;4970608;28;20458;-76
2023/01/23 01:11:25;;;;;;;17.90;12.07;;;;;;;-0.53;100.00;151236.22;4990629;28;20443;-77
2023/01/23 01:13:52;;;;;;;16.37;11.90;;;;;;;-0.57;100.00;151226.00;4986826;28;20502;-76
2023/01/23 01:16:19;;;;;;;17.33;12.20;;;;;;;-0.54;100.00;151233.69;4987871;28;20866;-76
2023/01/23 01:18:46;;;;;;;15.30;11.67;;;;;;;-0.52;100.00;151238.81;4989730;28;20546;-77
2023/01/23 01:21:14;;;;;;;15.27;10.70;;;;;;;-0.45;100.00;151256.75;4973861;28;20452;-76
2023/01/23 01:23:41;;;;;;;16.03;11.70;;;;;;;-0.50;100.00;151243.94;4983963;28;20984;-76
2023/01/23 01:26:10;;;;;;;15.07;10.80;;;;;;;-0.48;100.00;151247.81;4984820;28;20492;-76
2023/01/23 01:28:38;;;;;;;17.83;12.73;;;;;;;-0.48;100.00;151249.09;4986473;28;20456;-76
2023/01/23 01:31:07;;;;;;;16.20;11.37;;;;;;;-0.44;100.00;151259.34;4990380;28;20501;-77
2023/01/23 01:33:34;;;;;;;17.67;12.00;;;;;;;-0.46;100.00;151252.94;4971050;28;20457;-76
2023/01/23 01:36:01;;;;;;;14.03;10.63;;;;;;;-0.49;100.00;151246.53;4989495;28;20460;-76
2023/01/23 01:38:28;;;;;;;18.70;12.27;;;;;;;-0.50;100.00;151243.94;4989401;28;20484;-76
2023/01/23 01:40:56;;;;;;;17.63;12.27;;;;;;;-0.52;100.00;151238.81;4989396;28;20460;-77
2023/01/23 01:43:25;;;;;;;16.07;11.33;;;;;;;-0.51;100.00;151240.09;4982270;28;20551;-76
2023/01/23 01:46:16;;;;;;;18.83;13.13;;;;;;;-0.48;100.00;151249.09;4969528;28;20453;-76
2023/01/23 01:48:47;;;;;;;17.13;13.40;;;;;;;-0.49;100.00;151246.53;4971311;28;20480;-77
2023/01/23 01:51:19;;;;;;;16.90;11.40;;;;;;;-0.49;100.00;151245.22;4996731;28;20461;-76
2023/01/23 01:53:49;;;;;;;16.77;12.47;;;;;;;-0.54;100.00;151233.69;4975193;28;20448;-76
2023/01/23 01:56:17;;;;;;;16.53;11.87;;;;;;;-0.54;100.00;151233.69;4967473;28;20489;-76
2023/01/23 01:58:47;;;;;;;18.20;12.40;;;;;;;-0.50;100.00;151243.94;4962711;28;20508;-76
2023/01/23 02:01:14;;;;;;;19.17;12.60;;;;;;;-0.51;100.00;151240.09;4984104;28;20498;-76
2023/01/23 02:03:41;;;;;;;17.40;11.17;;;;;;;-0.47;100.00;151250.34;4978187;28;20486;-76
2023/01/23 02:06:07;;;;;;;13.93;10.37;;;;;;;-0.49;100.00;151245.22;4969193;28;20451;-76
2023/01/23 02:08:37;;;;;;;16.20;11.60;;;;;;;-0.51;100.00;151241.41;4983914;28;20486;-77
2023/01/23 02:11:05;;;;;;;16.77;11.50;;;;;;;-0.51;100.00;151241.41;4988226;28;20523;-76
2023/01/23 02:13:38;;;;;;;18.23;12.33;;;;;;;-0.45;100.00;151256.75;4987817;28;21009;-76
2023/01/23 02:16:08;;;;;;;17.47;11.53;;;;;;;-0.46;100.00;151254.22;4982701;28;20884;-76
2023/01/23 02:18:41;;;;;;;14.90;10.30;;;;;;;-0.42;100.00;151264.47;4983755;28;20933;-76
2023/01/23 02:21:08;;;;;;;16.03;11.10;;;;;;;-0.41;100.00;151267.03;4995961;28;20814;-76
2023/01/23 02:23:43;;;;;;;15.83;10.93;;;;;;;-0.46;100.00;151254.22;4961535;28;21049;-76
2023/01/23 02:26:16;;;;;;;18.53;12.57;;;;;;;-0.44;100.00;151259.34;4963742;28;20467;-76
2023/01/23 02:28:45;;;;;;;17.77;11.47;;;;;;;-0.46;100.00;151252.94;4979095;28;20448;-77
2023/01/23 02:31:15;;;;;;;18.30;12.00;;;;;;;-0.41;100.00;151267.03;4987247;28;20482;-76
2023/01/23 02:33:52;;;;;;;14.93;10.37;;;;;;;-0.40;100.00;151269.63;4980775;28;20548;-76
2023/01/23 02:36:21;;;;;;;17.43;11.70;;;;;;;-0.39;100.00;151270.88;4979507;28;20515;-76
2023/01/23 02:38:54;;;;;;;18.37;12.10;;;;;;;-0.45;100.00;151256.75;4987836;28;20462;-76
2023/01/23 02:41:27;;;;;;;19.30;11.23;;;;;;;-0.40;100.00;151268.34;4977220;28;21008;-77
2023/01/23 02:43:55;;;;;;;16.33;10.40;;;;;;;-0.44;100.00;151259.34;4957853;28;20493;-76
2023/01/23 02:46:21;;;;;;;18.80;11.43;;;;;;;-0.48;100.00;151247.81;4987206;28;20459;-76
2023/01/23 02:48:48;;;;;;;16.93;11.17;;;;;;;-0.47;100.00;151251.63;4975854;28;20813;-76
2023/01/23 02:51:16;;;;;;;16.17;11.90;;;;;;;-0.47;100.00;151251.63;4991375;28;20463;-77
2023/01/23 02:53:44;;;;;;;17.70;11.50;;;;;;;-0.43;100.00;151261.94;4972912;28;20953;-76
2023/01/23 02:56:10;;;;;;;18.70;11.83;;;;;;;-0.50;100.00;151243.94;4992011;28;20463;-76
2023/01/23 03:01:22;;;;;;;17.90;10.70;;;;;;;-0.46;100.00;151254.22;4979032;28;21180;-76
2023/01/23 03:03:52;;;;;;;16.93;11.90;;;;;;;-0.43;100.00;151260.63;4992537;28;20470;-76
2023/01/23 03:06:19;;;;;;;17.40;12.03;;;;;;;-0.44;100.00;151259.34;4979868;28;20477;-76
2023/01/23 03:08:49;;;;;;;18.33;11.93;;;;;;;-0.45;100.00;151255.50;4974979;28;20956;-76
2023/01/23 03:11:17;;;;;;;18.60;12.90;;;;;;;-0.47;100.00;151251.63;4974338;28;20456;-76
2023/01/23 03:13:46;;;;;;;17.53;12.27;;;;;;;-0.43;100.00;151260.63;5008491;28;20495;-76
2023/01/23 03:16:14;;;;;;;19.47;12.53;;;;;;;-0.43;100.00;151260.63;4995146;28;20524;-77
2023/01/23 03:18:41;;;;;;;17.17;12.57;;;;;;;-0.44;100.00;151259.34;4974411;28;20462;-76
2023/01/23 03:21:07;;;;;;;19.00;12.47;;;;;;;-0.48;100.00;151249.09;4991813;28;20523;-76
2023/01/23 03:23:35;;;;;;;16.60;12.60;;;;;;;-0.49;100.00;151245.22;4992591;28;20835;-76
2023/01/23 03:26:01;;;;;;;16.77;11.27;;;;;;;-0.47;100.00;151251.63;4985834;28;20458;-76
2023/01/23 03:31:16;;;;;;;15.40;10.40;;;;;;;-0.47;100.00;151251.63;4972118;28;20595;-76
2023/01/23 03:33:44;;;;;;;19.40;12.50;;;;;;;-0.45;100.00;151255.50;4971328;28;20443;-77
2023/01/23 03:36:13;;;;;;;21.47;12.77;;;;;;;-0.46;100.00;151252.94;4976845;28;20531;-76
2023/01/23 03:41:23;;;;;;;19.30;12.90;;;;;;;-0.48;100.00;151247.81;4979997;28;20961;-77
2023/01/23 03:41:27;;;;;;;18.70;12.40;;;;;;;-0.52;100.00;151238.81;4975273;28;20441;-77
2023/01/23 03:43:59;;;;;;;17.57;12.60;;;;;;;-0.48;100.00;151249.09;4988131;28;20498;-76
2023/01/23 03:46:27;;;;;;;16.33;11.87;;;;;;;-0.48;100.00;151247.81;4990994;28;20547;-77
2023/01/23 03:48:53;;;;;;;17.67;12.63;;;;;;;-0.48;100.00;151249.09;4989881;28;20447;-76
2023/01/23 03:51:20;;;;;;;17.93;12.97;;;;;;;-0.49;100.00;151245.22;4990111;28;20458;-76
2023/01/23 03:53:47;;;;;;;20.90;13.47;;;;;;;-0.47;100.00;151251.63;4967473;28;20537;-76
2023/01/23 03:56:14;;;;;;;19.10;13.43;;;;;;;-0.48;100.00;151249.09;4975546;28;20468;-77
2023/01/23 03:58:41;;;;;;;16.70;12.63;;;;;;;-0.42;100.00;151264.47;4975063;28;20851;-76
2023/01/23 04:01:09;;;;;;;19.80;12.17;;;;;;;-0.45;100.00;151256.75;4991452;28;20544;-77
2023/01/23 04:03:40;;;;;;;17.70;11.53;;;;;;;-0.46;100.00;151254.22;4987656;28;20465;-76
2023/01/23 04:06:07;;;;;;;20.77;12.87;;;;;;;-0.44;100.00;151259.34;4974126;28;20823;-76
2023/01/23 04:08:34;;;;;;;16.73;11.57;;;;;;;-0.41;100.00;151265.75;4974134;28;20505;-76
2023/01/23 04:11:02;;;;;;;14.20;10.80;;;;;;;-0.38;100.00;151274.75;4992086;28;20477;-76
2023/01/23 04:13:29;;;;;;;18.67;12.50;;;;;;;-0.40;100.00;151269.63;4990738;28;20449;-76
2023/01/23 04:15:56;;;;;;;18.30;12.90;;;;;;;-0.44;100.00;151259.34;4966784;28;20456;-76
2023/01/23 04:18:23;;;;;;;17.60;12.60;;;;;;;-0.39;100.00;151272.16;4987893;28;20440;-76
2023/01/23 04:20:51;;;;;;;17.70;11.40;;;;;;;-0.42;100.00;151264.47;4969391;28;20454;-76
2023/01/23 04:23:18;;;;;;;17.60;12.00;;;;;;;-0.44;100.00;151259.34;4978599;28;20472;-76
2023/01/23 04:25:45;;;;;;;19.37;12.60;;;;;;;-0.44;100.00;151259.34;4987373;28;20555;-77
2023/01/23 04:28:13;;;;;;;19.33;12.80;;;;;;;-0.43;100.00;151260.63;4982805;28;20981;-76
2023/01/23 04:30:41;;;;;;;20.20;12.40;;;;;;;-0.42;100.00;151263.16;4989095;28;20833;-76
2023/01/23 04:33:15;;;;;;;19.07;12.30;;;;;;;-0.42;100.00;151264.47;4974094;28;20462;-76
2023/01/23 04:35:51;;;;;;;21.73;12.33;;;;;;;-0.39;100.00;151272.16;4997563;28;20803;-76
2023/01/23 04:38:18;;;;;;;18.07;12.33;;;;;;;-0.36;100.00;151278.56;4973305;28;20453;-77
2023/01/23 04:40:46;;;;;;;19.27;12.20;;;;;;;-0.42;100.00;151264.47;4975145;28;20502;-76
2023/01/23 04:43:13;;;;;;;19.53;13.43;;;;;;;-0.41;100.00;151267.03;4990317;28;20547;-76
2023/01/23 04:45:44;;;;;;;16.80;12.10;;;;;;;-0.36;100.00;151279.88;4984830;28;20457;-76
2023/01/23 04:48:24;;;;;;;19.47;13.10;;;;;;;-0.42;100.00;151264.47;4972222;28;20965;-76
2023/01/23 04:50:52;;;;;;;17.93;12.70;;;;;;;-0.37;100.00;151277.28;4974608;28;20837;-76
2023/01/23 04:53:19;;;;;;;17.67;12.23;;;;;;;-0.37;100.00;151276.03;4984567;28;20985;-77
2023/01/23 04:55:52;;;;;;;18.00;11.63;;;;;;;-0.37;100.00;151276.03;4973131;28;20456;-76
2023/01/23 04:58:19;;;;;;;18.77;12.63;;;;;;;-0.40;100.00;151269.63;4991480;28;20447;-76
2023/01/23 05:00:47;;;;;;;20.33;12.43;;;;;;;-0.38;100.00;151274.75;4987796;28;20463;-76
2023/01/23 05:03:14;;;;;;;16.73;12.73;;;;;;;-0.33;100.00;151286.28;4971932;28;20473;-77
2023/01/23 05:05:45;;;;;;;18.77;12.03;;;;;;;-0.33;100.00;151287.56;4973146;28;20465;-76
2023/01/23 05:08:13;;;;;;;14.23;11.97;;;;;;;-0.37;100.00;151276.03;4990139;28;20484;-76
2023/01/23 05:10:43;;;;;;;17.47;12.27;;;;;;;-0.30;100.00;151295.28;4987281;28;20460;-76
2023/01/23 05:13:12;;;;;;;18.83;12.53;;;;;;;-0.33;100.00;151286.28;4969607;28;20461;-76
2023/01/23 05:15:39;;;;;;;16.87;11.50;;;;;;;-0.34;100.00;151284.97;4987573;28;20499;-76
2023/01/23 05:18:06;;;;;;;18.07;11.20;;;;;;;-0.35;100.00;151282.44;4986052;28;20556;-76
2023/01/23 05:20:35;;;;;;;17.00;12.20;;;;;;;-0.32;100.00;151290.09;4961824;28;20520;-77
2023/01/23 05:23:02;;;;;;;19.00;12.87;;;;;;;-0.35;100.00;151282.44;4983469;28;20464;-76
2023/01/23 05:25:37;;;;;;;17.37;11.73;;;;;;;-0.35;100.00;151282.44;4970882;28;20525;-77
2023/01/23 05:28:04;;;;;;;20.20;12.93;;;;;;;-0.34;100.00;151283.69;4974213;28;20456;-76
2023/01/23 05:30:32;;;;;;;17.40;11.70;;;;;;;-0.35;100.00;151281.16;4987818;28;20450;-76
2023/01/23 05:33:16;;;;;;;16.67;10.93;;;;;;;-0.32;100.00;151290.09;4968208;28;21041;-76
2023/01/23 05:35:44;;;;;;;17.90;11.90;;;;;;;-0.39;100.00;151272.16;4987657;28;20453;-77
2023/01/23 05:38:12;;;;;;;19.60;11.97;;;;;;;-0.37;100.00;151277.28;4987213;28;20441;-76
2023/01/23 05:40:40;;;;;;;16.03;12.60;;;;;;;-0.38;100.00;151273.44;4971535;28;20813;-76
2023/01/23 05:43:26;;;;;;;21.57;13.00;;;;;;;-0.37;100.00;151277.28;4986025;28;20473;-76
2023/01/23 05:46:24;;;;;;;17.77;11.73;;;;;;;-0.34;100.00;151284.97;4977539;28;20560;-76
2023/01/23 05:48:52;;;;;;;15.93;11.60;;;;;;;-0.32;100.00;151290.09;4964796;28;20461;-76
2023/01/23 05:51:22;;;;;;;18.37;12.07;;;;;;;-0.30;100.00;151295.28;4990056;28;20504;-76
2023/01/23 05:53:49;;;;;;;17.23;11.97;;;;;;;-0.36;100.00;151279.88;4971612;28;20447;-76
2023/01/23 05:56:19;;;;;;;22.63;12.07;;;;;;;-0.33;100.00;151286.28;4963885;28;20564;-76
2023/01/23 05:59:06;;;;;;;18.83;12.77;;;;;;;-0.35;100.00;151282.44;4980974;28;20454;-77
2023/01/23 06:01:40;;;;;;;19.93;11.87;;;;;;;-0.32;100.00;151290.09;4970676;28;20484;-76
2023/01/23 06:04:42;;;;;;;20.23;11.23;;;;;;;-0.31;100.00;151291.41;4945251;28;20473;-76
2023/01/23 06:07:25;;;;;;;16.43;11.20;;;;;;;-0.33;100.00;151287.56;4996552;28;20456;-76
2023/01/23 06:09:55;;;;;;;18.90;12.63;;;;;;;-0.30;100.00;151295.28;4993359;28;20451;-76
2023/01/23 06:12:23;;;;;;;20.60;12.57;;;;;;;-0.35;100.00;151282.44;4985683;28;20479;-76
2023/01/23 06:14:50;;;;;;;16.30;10.93;;;;;;;-0.28;100.00;151300.41;4985792;28;20444;-76
2023/01/23 06:17:17;;;;;;;19.33;11.43;;;;;;;-0.28;100.00;151300.41;4967565;28;20993;-76
2023/01/23 06:19:43;;;;;;;17.77;11.73;;;;;;;-0.29;100.00;151296.56;4984521;28;20499;-76
2023/01/23 06:22:11;;;;;;;17.83;11.37;;;;;;;-0.27;100.00;151302.97;4968983;28;20513;-76
2023/01/23 06:24:55;;;;;;;17.77;11.20;;;;;;;-0.28;100.00;151299.09;4967068;28;20999;-76
2023/01/23 06:27:23;;;;;;;20.27;11.70;;;;;;;-0.29;100.00;151296.56;4986837;28;20465;-76
2023/01/23 06:29:50;;;;;;;16.10;11.17;;;;;;;-0.25;100.00;151306.81;4970215;28;20816;-76
2023/01/23 06:32:17;;;;;;;19.60;11.77;;;;;;;-0.32;100.00;151290.09;4983426;28;20972;-76
2023/01/23 06:34:44;;;;;;;19.77;12.30;;;;;;;-0.30;100.00;151295.28;4968316;28;20460;-76
2023/01/23 06:37:11;;;;;;;19.70;13.10;;;;;;;-0.34;100.00;151284.97;4967599;28;20454;-77
2023/01/23 06:39:40;;;;;;;18.30;11.70;;;;;;;-0.36;100.00;151278.56;4969235;28;20454;-76
2023/01/23 06:42:09;;;;;;;16.40;11.17;;;;;;;-0.40;100.00;151268.34;4976858;28;20454;-76
2023/01/23 06:44:42;;;;;;;18.30;11.93;;;;;;;-0.33;100.00;151286.28;4968555;28;20466;-76
2023/01/23 06:47:09;;;;;;;20.80;12.53;;;;;;;-0.35;100.00;151282.44;4986817;28;20452;-76
2023/01/23 06:49:36;;;;;;;18.70;11.93;;;;;;;-0.32;100.00;151288.84;4992531;28;20954;-76
2023/01/23 06:52:04;;;;;;;20.17;12.80;;;;;;;-0.36;100.00;151279.88;4983678;28;21076;-76
2023/01/23 06:54:30;;;;;;;20.97;10.50;;;;;;;-0.36;100.00;151279.88;4983922;28;20452;-76
2023/01/23 06:57:01;;;;;;;17.40;11.43;;;;;;;-0.36;100.00;151278.56;4984721;28;20496;-76
2023/01/23 06:59:28;;;;;;;19.80;10.70;;;;;;;-0.34;100.00;151284.97;4984951;28;21054;-76
2023/01/23 07:01:58;;;;;;;16.37;10.90;;;;;;;-0.35;100.00;151281.16;4963795;28;20551;-76
2023/01/23 07:04:34;;;;;;;19.17;11.13;;;;;;;-0.36;100.00;151279.88;4980981;28;20509;-76
2023/01/23 07:07:01;;;;;;;17.57;11.50;;;;;;;-0.37;100.00;151277.28;4975410;28;20522;-77
2023/01/23 07:09:28;;;;;;;16.70;11.60;;;;;;;-0.36;100.00;151279.88;5001843;28;20454;-77
2023/01/23 07:12:05;;;;;;;19.80;12.80;;;;;;;-0.37;100.00;151277.28;4969408;28;20979;-76
2023/01/23 07:14:32;;;;;;;20.90;11.73;;;;;;;-0.33;100.00;151286.28;4986463;28;20457;-76
2023/01/23 07:17:00;;;;;;;17.87;10.90;;;;;;;-0.35;100.00;151282.44;4969547;28;20537;-76
2023/01/23 07:19:27;;;;;;;19.67;11.63;;;;;;;-0.32;100.00;151290.09;4976329;28;20997;-76
2023/01/23 07:21:55;;;;;;;18.60;11.07;;;;;;;-0.30;100.00;151293.97;5002598;28;20451;-76
2023/01/23 07:24:22;;;;;;;18.87;11.83;;;;;;;-0.33;100.00;151287.56;4989710;28;20476;-78
2023/01/23 07:26:49;;;;;;;19.53;11.13;;;;;;;-0.34;100.00;151284.97;4984537;28;20511;-76
2023/01/23 07:29:15;;;;;;;19.43;11.00;;;;;;;-0.30;100.00;151295.28;4985272;28;21074;-76
2023/01/23 07:31:42;;;;;;;17.83;11.07;;;;;;;-0.31;100.00;151292.69;4989205;28;20570;-76
2023/01/23 07:34:10;;;;;;;19.10;11.20;;;;;;;-0.30;100.00;151293.97;4990539;28;20544;-76
2023/01/23 07:36:37;;;;;;;17.77;11.57;;;;;;;-0.27;100.00;151301.69;4987426;28;20457;-76
2023/01/23 07:39:03;;;;;;;16.47;10.60;;;;;;;-0.29;100.00;151296.56;4989368;28;20457;-76
2023/01/23 07:41:30;;;;;;;18.40;12.40;;;;;;;-0.33;100.00;151287.56;4971708;28;20457;-76
2023/01/23 07:44:01;;;;;;;21.00;13.40;;;;;;;-0.35;100.00;151282.44;4989085;28;20592;-76
2023/01/23 07:46:29;;;;;;;17.10;11.37;;;;;;;-0.32;100.00;151290.09;4979714;28;20446;-76
2023/01/23 07:48:56;;;;;;;17.33;11.73;;;;;;;-0.33;100.00;151286.28;4990630;28;20825;-76
2023/01/23 07:51:24;;;;;;;20.90;12.87;;;;;;;-0.31;100.00;151292.69;4989191;28;20548;-76
2023/01/23 07:53:51;;;;;;;18.03;11.60;;;;;;;-0.32;100.00;151290.09;4981414;28;20556;-76
2023/01/23 07:56:17;;;;;;;20.27;12.73;;;;;;;-0.31;100.00;151292.69;4988100;28;20550;-76
2023/01/23 07:58:44;;;;;;;21.70;13.33;;;;;;;-0.25;100.00;151308.09;4987507;28;20458;-76
2023/01/23 08:01:11;;;;;;;18.20;12.20;;;;;;;-0.26;100.00;151305.50;4981472;28;20599;-77
2023/01/23 08:03:38;;;;;;;18.33;12.30;;;;;;;-0.16;100.00;151329.91;4984430;28;20869;-76
2023/01/23 08:06:05;;;;;;;18.30;12.17;;;;;;;-0.22;100.00;151315.81;4986316;28;20486;-76
2023/01/23 08:08:34;;;;;;;19.10;11.60;;;;;;;-0.18;100.00;151324.75;4980655;28;20521;-76
2023/01/23 08:11:04;;;;;;;20.03;11.87;;;;;;;-0.15;100.00;151333.75;4982505;28;20464;-76
2023/01/23 08:13:31;;;;;;;16.17;11.00;;;;;;;-0.14;100.00;151336.34;4980054;28;20478;-76
2023/01/23 08:15:58;;;;;;;16.50;11.97;;;;;;;-0.12;100.00;151340.16;4986007;28;20848;-76
2023/01/23 08:18:25;;;;;;;25.10;12.57;;;;;;;-0.18;100.00;151326.03;4986634;28;20456;-76
2023/01/23 08:20:55;;;;;;;23.67;13.27;;;;;;;-0.16;100.00;151331.16;4985102;28;20552;-76
2023/01/23 08:23:25;;;;;;;17.57;11.33;;;;;;;-0.15;100.00;151332.47;4986691;28;20963;-76
2023/01/23 08:25:54;;;;;;;19.17;13.50;;;;;;;-0.14;100.00;151336.34;4980114;28;20491;-76
2023/01/23 08:28:21;;;;;;;20.33;12.50;;;;;;;-0.20;100.00;151320.91;4985177;28;20687;-76
2023/01/23 08:30:48;;;;;;;18.43;11.60;;;;;;;-0.13;100.00;151337.56;4980472;28;20813;-76
2023/01/23 08:33:15;;;;;;;21.60;13.00;;;;;;;-0.13;100.00;151338.88;4987613;28;20447;-76
2023/01/23 08:35:48;;;;;;;21.27;12.67;;;;;;;-0.14;100.00;151336.34;4983230;28;20974;-77
2023/01/23 08:38:16;;;;;;;18.60;12.47;;;;;;;-0.14;100.00;151335.03;4985544;28;20451;-76
2023/01/23 08:40:43;;;;;;;18.57;12.37;;;;;;;-0.15;100.00;151333.75;4983861;28;20592;-76
2023/01/23 08:43:12;;;;;;;21.73;11.63;;;;;;;-0.14;100.00;151335.03;4985616;28;20872;-77
2023/01/23 08:45:39;;;;;;;18.37;11.80;;;;;;;-0.11;100.00;151342.75;4983002;28;20488;-76
2023/01/23 08:48:06;;;;;;;19.43;13.23;;;;;;;-0.14;100.00;151336.34;4984686;28;21161;-76
2023/01/23 08:50:33;;;;;;;25.67;13.70;;;;;;;-0.17;100.00;151328.63;5001906;28;20463;-76
2023/01/23 08:53:00;;;;;;;19.73;12.20;;;;;;;-0.13;100.00;151337.56;4979298;28;20465;-76
2023/01/23 08:55:28;;;;;;;18.83;13.87;;;;;;;-0.13;100.00;151338.88;4985069;28;20460;-76
2023/01/23 08:57:54;;;;;;;19.27;13.57;;;;;;;-0.10;100.00;151346.56;4985959;28;20866;-77
2023/01/23 09:00:23;;;;;;;19.33;12.90;;;;;;;-0.11;100.00;151344.00;4985457;28;20497;-76
2023/01/23 09:02:50;;;;;;;15.90;11.20;;;;;;;-0.09;100.00;151347.88;4985577;28;20457;-76
2023/01/23 09:05:17;;;;;;;20.40;11.70;;;;;;;-0.06;100.00;151355.56;4986804;28;20476;-76
2023/01/23 09:07:44;;;;;;;22.80;12.33;;;;;;;-0.03;100.00;151363.28;4987601;28;20457;-76
2023/01/23 09:10:11;;;;;;;19.30;12.00;;;;;;;0.02;100.00;151374.81;4985164;28;20919;-76
2023/01/23 09:12:38;;;;;;;16.67;11.23;;;;;;;0.01;100.00;151373.53;4988591;28;20535;-75
2023/01/23 09:15:05;;;;;;;19.03;11.13;;;;;;;0.07;100.00;151387.63;4984403;28;20564;-75
2023/01/23 09:17:33;;;;;;;17.60;11.50;;;;;;;0.13;100.00;151403.06;4985872;28;20543;-76
2023/01/23 09:20:00;;;;;;;13.83;10.00;;;;;;;0.11;100.00;151397.94;4984471;28;20459;-75
2023/01/23 09:22:27;;;;;;;16.73;11.50;;;;;;;0.09;100.00;151392.75;4986327;28;20790;-75
2023/01/23 09:24:54;;;;;;;15.60;10.50;;;;;;;0.11;100.00;151397.94;4985256;28;20476;-75
2023/01/23 09:27:20;;;;;;;15.53;11.00;;;;;;;0.14;100.00;151405.59;4980624;28;20463;-75
2023/01/23 09:29:47;;;;;;;16.07;10.27;;;;;;;0.15;100.00;151409.47;4968259;28;20452;-75
2023/01/23 09:32:14;;;;;;;14.27;9.83;;;;;;;0.09;100.00;151394.06;4985732;28;20456;-74
2023/01/23 09:34:42;;;;;;;14.63;8.90;;;;;;;0.08;100.00;151390.22;4985430;28;20555;-75
2023/01/23 09:37:09;;;;;;;13.33;8.90;;;;;;;0.14;100.00;151405.59;4979858;28;20836;-75
2023/01/23 09:39:35;;;;;;;11.63;8.30;;;;;;;0.03;100.00;151377.41;4984708;28;20479;-76
2023/01/23 09:42:06;;;;;;;13.23;9.17;;;;;;;0.02;100.00;151374.81;4987188;28;20505;-76
2023/01/23 09:44:37;;;;;;;11.77;8.40;;;;;;;0.02;100.00;151374.81;4983389;28;20492;-77
2023/01/23 09:47:07;;;;;;;15.77;8.53;;;;;;;-0.01;100.00;151369.69;4981217;28;20451;-76
2023/01/23 09:49:40;;;;;;;10.90;7.33;;;;;;;0.00;100.00;151372.22;4985806;28;20536;-77
2023/01/23 09:52:12;;;;;;;11.87;7.50;;;;;;;-0.05;100.00;151359.41;4984802;28;20864;-77
2023/01/23 09:54:43;;;;;;;13.40;8.60;;;;;;;-0.03;100.00;151364.53;4979126;28;20481;-77
2023/01/23 09:57:14;;;;;;;8.00;6.00;;;;;;;-0.04;100.00;151361.97;4982188;28;20870;-77
2023/01/23 09:59:44;;;;;;;13.53;8.80;;;;;;;-0.02;100.00;151367.09;4983811;28;20765;-76
2023/01/23 10:02:15;;;;;;;13.10;8.27;;;;;;;0.00;100.00;151372.22;4978049;28;20451;-76
2023/01/23 10:04:42;;;;;;;14.00;8.47;;;;;;;0.06;100.00;151385.06;4986220;28;20460;-77
2023/01/23 10:07:20;;;;;;;13.60;8.57;;;;;;;0.00;100.00;151372.22;4983048;28;20448;-76
2023/01/23 10:10:00;;;;;;;12.30;7.90;;;;;;;0.00;100.00;151370.97;4982008;28;20885;-76
2023/01/23 10:12:33;;;;;;;12.93;7.73;;;;;;;0.04;100.00;151379.94;4980813;28;20542;-77
2023/01/23 10:15:12;;;;;;;10.67;8.00;;;;;;;-0.01;100.00;151369.69;5001002;28;20508;-77
2023/01/23 10:17:42;;;;;;;13.23;9.23;;;;;;;0.04;100.00;151379.94;4985403;28;20452;-77
2023/01/23 10:20:28;;;;;;;10.40;7.53;;;;;;;0.02;100.00;151374.81;4986000;28;20927;-77
2023/01/23 10:23:04;;;;;;;9.20;7.20;;;;;;;0.04;100.00;151381.22;4986634;28;20926;-76
2023/01/23 10:25:33;;;;;;;9.60;7.87;;;;;;;0.06;100.00;151386.34;5001659;28;20520;-77
2023/01/23 10:28:08;;;;;;;11.10;8.03;;;;;;;0.10;100.00;151396.63;4979420;28;20453;-77
2023/01/23 10:30:37;;;;;;;17.27;9.23;;;;;;;0.18;100.00;151417.19;4978428;28;20488;-76
2023/01/23 10:33:10;;;;;;;13.20;8.57;;;;;;;0.12;100.00;151401.75;4979003;28;20453;-77
2023/01/23 10:35:40;;;;;;;11.80;7.27;;;;;;;0.11;100.00;151399.16;4982820;28;20871;-77
2023/01/23 10:38:16;;;;;;;10.90;8.33;;;;;;;0.17;100.00;151413.28;4985091;28;20503;-77
2023/01/23 10:43:27;;;;;;;12.50;7.40;;;;;;;0.19;100.00;151419.72;4985313;28;20488;-77
2023/01/23 10:45:54;;;;;;;12.80;8.77;;;;;;;0.13;100.00;151403.06;4987290;28;20524;-76
2023/01/23 10:48:39;;;;;;;16.20;8.43;;;;;;;0.16;100.00;151410.75;4984783;28;20459;-76
2023/01/23 10:51:24;;;;;;;14.17;8.10;;;;;;;0.11;100.00;151399.16;4979343;28;20497;-76
2023/01/23 10:54:05;;;;;;;12.60;9.23;;;;;;;0.13;100.00;151403.06;4979344;28;20454;-77
2023/01/23 10:56:33;;;;;;;13.53;8.93;;;;;;;0.15;100.00;151408.19;4982498;28;20450;-76
2023/01/23 10:59:01;;;;;;;12.03;9.47;;;;;;;0.17;100.00;151414.59;5001692;28;20542;-76
2023/01/23 11:01:30;;;;;;;10.90;8.30;;;;;;;0.16;100.00;151410.75;4980774;28;20465;-76
2023/01/23 11:03:57;;;;;;;13.20;8.80;;;;;;;0.17;100.00;151414.59;4981972;28;20456;-76
2023/01/23 11:06:24;;;;;;;12.80;9.20;;;;;;;0.20;100.00;151422.28;4988153;28;20575;-76
2023/01/23 11:08:56;;;;;;;17.50;9.40;;;;;;;0.26;100.00;151436.41;4988724;28;20456;-76
2023/01/23 11:11:26;;;;;;;13.53;9.60;;;;;;;0.24;100.00;151431.28;4971243;28;20489;-76
2023/01/23 11:14:05;;;;;;;13.70;10.93;;;;;;;0.30;100.00;151447.97;4979594;28;20453;-76
2023/01/23 11:16:32;;;;;;;14.70;9.30;;;;;;;0.31;100.00;151449.25;4983064;28;20607;-76
2023/01/23 11:19:10;;;;;;;13.13;9.17;;;;;;;0.30;100.00;151446.66;4971269;28;20452;-77
2023/01/23 11:21:38;;;;;;;14.20;9.70;;;;;;;0.32;100.00;151451.84;4986933;28;20464;-76